Artois, California
Current Conditions -  °F | °C
As of 12:59 PM on Thursday 23 Oct 2014 (Local Time) from KCIC Reporting Station
Overcast Overcast  
Wind Chill: 63°   Ceiling: 7000
Heat Index: 63°   Visibility: 10mi
Dew Point: 54°   Wind: 0mph
Humidity: 72%   Direction: NA
Pressure: 30.07"   Gusts: NA
Location:  39.62°N, 122.2°W
Report Text: KCIC 231959Z 00000KT 10SM BKN070 OVC100 17/12 A3007
Loading
Personal Weather Stations






























Interactive Weather Map New forecast layout! Learn more

10-Day Weather Forecast

Advertisements
Track Severe Weather on mobile